Time;durP1;ratioP1;P1;durP2;ratioP2;P2;SDS_P1;SDS_P2;PMS_P1;PMS_P2;Temp;Humidity;BMP_temperature;BMP_pressure;BME280_temperature;BME280_humidity;BME280_pressure;Samples;Min_cycle;Max_cycle;Signal;HPM_P1;HPM_P2
2022/03/23 00:02:04;;;;;;;;;;;;;;;11.06;47.90;99158.63;5098699;28;20003;-62
2022/03/23 00:04:32;;;;;;;;;;;;;;;11.14;47.98;99162.81;5101117;28;19925;-61
2022/03/23 00:06:59;;;;;;;;;;;;;;;11.47;48.40;99162.94;5102642;28;19959;-61
2022/03/23 00:09:26;;;;;;;;;;;;;;;11.60;46.71;99165.34;5100922;28;19924;-61
2022/03/23 00:11:52;;;;;;;;;;;;;;;11.91;46.29;99167.53;5099920;28;20266;-61
2022/03/23 00:14:19;;;;;;;;;;;;;;;11.93;45.83;99164.63;5102380;28;20006;-61
2022/03/23 00:16:45;;;;;;;;;;;;;;;12.00;45.46;99159.94;5102189;28;20575;-61
2022/03/23 00:19:12;;;;;;;;;;;;;;;11.95;45.70;99172.38;5102392;28;19924;-61
2022/03/23 00:21:40;;;;;;;;;;;;;;;12.06;45.69;99160.81;5097802;28;19956;-61
2022/03/23 00:24:06;;;;;;;;;;;;;;;12.00;45.50;99167.16;5098737;28;19947;-61
2022/03/23 00:26:33;;;;;;;;;;;;;;;12.02;45.31;99159.66;5101261;28;19988;-62
2022/03/23 00:28:59;;;;;;;;;;;;;;;12.03;45.43;99158.63;5102162;28;19963;-61
2022/03/23 00:31:25;;;;;;;;;;;;;;;12.09;45.78;99163.84;5100751;28;19978;-62
2022/03/23 00:33:54;;;;;;;;;;;;;;;12.07;45.69;99165.91;5098621;28;19959;-62
2022/03/23 00:36:20;;;;;;;;;;;;;;;11.88;46.26;99165.31;5099359;28;19967;-61
2022/03/23 00:38:50;;;;;;;;;;;;;;;11.40;46.42;99159.56;5102050;28;19935;-61
2022/03/23 00:41:16;;;;;;;;;;;;;;;10.81;47.48;99148.19;5101889;28;19960;-62
2022/03/23 00:43:42;;;;;;;;;;;;;;;10.77;48.19;99152.38;5102386;28;19952;-61
2022/03/23 00:46:09;;;;;;;;;;;;;;;11.08;49.05;99153.03;5098358;28;20001;-62
2022/03/23 00:48:35;;;;;;;;;;;;;;;11.19;48.14;99157.53;5100109;28;19952;-62
2022/03/23 00:51:01;;;;;;;;;;;;;;;11.12;47.79;99146.16;5101800;28;19970;-62
2022/03/23 00:53:28;;;;;;;;;;;;;;;11.39;48.04;99145.38;5100065;28;19928;-62
2022/03/23 00:55:56;;;;;;;;;;;;;;;11.46;47.58;99150.59;5098358;28;19955;-62
2022/03/23 00:58:22;;;;;;;;;;;;;;;11.39;48.14;99148.06;5099287;28;20518;-62
2022/03/23 01:00:49;;;;;;;;;;;;;;;11.46;47.79;99142.56;5101830;28;19930;-61
2022/03/23 01:03:15;;;;;;;;;;;;;;;11.61;48.49;99150.06;5100684;28;19952;-61
2022/03/23 01:05:41;;;;;;;;;;;;;;;11.28;47.69;99145.44;5100186;28;19963;-63
2022/03/23 01:08:08;;;;;;;;;;;;;;;10.98;48.62;99150.16;5102419;28;19921;-62
2022/03/23 01:10:34;;;;;;;;;;;;;;;10.58;48.58;99152.75;5104972;28;19964;-61
2022/03/23 01:13:02;;;;;;;;;;;;;;;10.77;48.94;99146.22;5109927;28;20366;-62
2022/03/23 01:15:29;;;;;;;;;;;;;;;11.09;48.49;99147.44;5103761;28;19935;-62
2022/03/23 01:17:56;;;;;;;;;;;;;;;11.26;47.80;99153.66;5102298;28;19927;-61
2022/03/23 01:20:22;;;;;;;;;;;;;;;11.22;48.32;99149.03;5102177;28;20330;-62
2022/03/23 01:22:49;;;;;;;;;;;;;;;11.30;48.21;99154.00;5105573;28;19957;-61
2022/03/23 01:25:16;;;;;;;;;;;;;;;11.40;47.54;99143.53;5105716;28;19931;-61
2022/03/23 01:27:43;;;;;;;;;;;;;;;11.08;47.72;99148.50;5102108;28;19963;-61
2022/03/23 01:30:12;;;;;;;;;;;;;;;10.91;48.63;99149.47;5102028;28;19924;-61
2022/03/23 01:32:40;;;;;;;;;;;;;;;10.23;48.92;99142.84;5105183;28;19924;-61
2022/03/23 01:35:07;;;;;;;;;;;;;;;10.31;50.11;99147.03;5105582;28;19991;-61
2022/03/23 01:37:34;;;;;;;;;;;;;;;10.74;49.25;99141.34;5102959;28;20025;-62
2022/03/23 01:40:00;;;;;;;;;;;;;;;10.11;48.73;99143.84;5101899;28;19935;-61
2022/03/23 01:42:28;;;;;;;;;;;;;;;9.73;50.27;99150.38;5107555;28;19920;-62
2022/03/23 01:44:54;;;;;;;;;;;;;;;10.14;50.84;99148.75;5105555;28;19991;-62
2022/03/23 01:47:22;;;;;;;;;;;;;;;9.47;50.75;99145.38;5104684;28;19924;-62
2022/03/23 01:49:50;;;;;;;;;;;;;;;9.95;52.14;99150.66;5101849;28;19956;-61
2022/03/23 01:52:18;;;;;;;;;;;;;;;10.07;50.96;99150.69;5101777;28;19929;-60
2022/03/23 01:54:45;;;;;;;;;;;;;;;10.57;49.85;99149.25;5105278;28;19925;-62
2022/03/23 01:57:13;;;;;;;;;;;;;;;10.68;49.28;99151.09;5105118;28;19924;-62
2022/03/23 01:59:39;;;;;;;;;;;;;;;10.83;48.94;99153.31;5101565;28;19932;-62
2022/03/23 02:02:08;;;;;;;;;;;;;;;10.97;48.49;99153.88;5101261;28;19963;-61
2022/03/23 02:04:36;;;;;;;;;;;;;;;10.75;48.09;99150.97;5103890;28;19924;-62
2022/03/23 02:07:03;;;;;;;;;;;;;;;10.96;48.42;99149.56;5104667;28;19979;-62
2022/03/23 02:09:30;;;;;;;;;;;;;;;10.40;48.58;99152.84;5102666;28;20223;-61
2022/03/23 02:11:56;;;;;;;;;;;;;;;10.53;49.91;99153.44;5102515;28;19964;-61
2022/03/23 02:14:23;;;;;;;;;;;;;;;10.33;48.91;99158.31;5104434;28;19931;-62
2022/03/23 02:16:51;;;;;;;;;;;;;;;10.41;48.77;99147.28;5103599;28;19924;-62
2022/03/23 02:19:18;;;;;;;;;;;;;;;10.58;48.90;99148.22;5104334;28;19956;-61
2022/03/23 02:21:46;;;;;;;;;;;;;;;10.58;49.35;99139.38;5101034;28;20069;-63
2022/03/23 02:24:13;;;;;;;;;;;;;;;10.74;48.31;99142.16;5100983;28;19924;-61
2022/03/23 02:26:40;;;;;;;;;;;;;;;10.67;48.51;99146.81;5104253;28;20000;-61
2022/03/23 02:29:07;;;;;;;;;;;;;;;10.71;48.21;99139.94;5104408;28;19963;-61
2022/03/23 02:31:36;;;;;;;;;;;;;;;10.48;48.39;99145.31;5101716;28;20688;-62
2022/03/23 02:34:03;;;;;;;;;;;;;;;10.64;48.74;99139.28;5100652;28;19925;-62
2022/03/23 02:36:31;;;;;;;;;;;;;;;10.56;48.60;99141.47;5102638;28;19959;-62
2022/03/23 02:38:58;;;;;;;;;;;;;;;10.44;49.05;99132.63;5104285;28;19924;-61
2022/03/23 02:41:25;;;;;;;;;;;;;;;10.67;48.72;99138.81;5102914;28;19920;-61
2022/03/23 02:43:52;;;;;;;;;;;;;;;10.66;48.00;99137.19;5104767;28;19921;-62
2022/03/23 02:46:19;;;;;;;;;;;;;;;10.59;47.98;99132.97;5100925;28;19931;-63
2022/03/23 02:48:47;;;;;;;;;;;;;;;10.63;48.30;99142.97;5104058;28;19931;-61
2022/03/23 02:51:14;;;;;;;;;;;;;;;10.45;48.08;99148.44;5103936;28;19931;-61
2022/03/23 03:02:06;;;;;;;;;;;;;;;10.59;48.24;99157.03;5099209;28;19991;-60
2022/03/23 03:04:32;;;;;;;;;;;;;;;10.66;47.85;99155.88;5102443;28;19935;-61
2022/03/23 03:06:59;;;;;;;;;;;;;;;10.53;47.68;99152.63;5103586;28;19924;-62
2022/03/23 03:09:25;;;;;;;;;;;;;;;10.58;47.80;99150.91;5102238;28;19927;-61
2022/03/23 03:11:54;;;;;;;;;;;;;;;10.58;47.90;99155.41;5100871;28;19929;-61
2022/03/23 03:14:23;;;;;;;;;;;;;;;10.57;47.63;99148.44;5103214;28;20360;-60
2022/03/23 03:16:49;;;;;;;;;;;;;;;10.51;47.63;99154.72;5103354;28;19963;-60
2022/03/23 03:19:15;;;;;;;;;;;;;;;10.48;48.05;99157.84;5103480;28;19924;-60
2022/03/23 03:21:42;;;;;;;;;;;;;;;10.46;48.11;99158.06;5099710;28;19955;-61
2022/03/23 03:24:09;;;;;;;;;;;;;;;10.40;48.01;99144.84;5099566;28;19966;-63
2022/03/23 03:26:35;;;;;;;;;;;;;;;10.38;48.12;99154.94;5102420;28;19960;-63
2022/03/23 03:29:04;;;;;;;;;;;;;;;10.37;48.13;99153.31;5102834;28;19988;-61
2022/03/23 03:31:31;;;;;;;;;;;;;;;10.42;48.15;99148.91;5100830;28;19928;-61
2022/03/23 03:33:58;;;;;;;;;;;;;;;10.29;48.11;99151.78;5099664;28;19947;-63
2022/03/23 03:36:24;;;;;;;;;;;;;;;10.15;48.56;99143.19;5100706;28;19995;-61
2022/03/23 03:38:51;;;;;;;;;;;;;;;10.18;48.64;99145.38;5102851;28;20016;-62
2022/03/23 03:41:18;;;;;;;;;;;;;;;10.22;48.82;99153.75;5102704;28;19924;-61
2022/03/23 03:43:44;;;;;;;;;;;;;;;10.25;48.76;99153.28;5103451;28;19932;-61
2022/03/23 03:46:12;;;;;;;;;;;;;;;10.22;48.53;99146.56;5098238;28;19924;-62
2022/03/23 03:48:39;;;;;;;;;;;;;;;10.12;49.00;99150.81;5102465;28;19935;-61
2022/03/23 03:51:06;;;;;;;;;;;;;;;10.12;48.86;99154.28;5102639;28;19946;-61
2022/03/23 03:53:32;;;;;;;;;;;;;;;10.17;48.66;99153.63;5100387;28;19924;-61
2022/03/23 03:56:00;;;;;;;;;;;;;;;10.19;48.92;99154.22;5099138;28;19924;-62
2022/03/23 03:58:27;;;;;;;;;;;;;;;10.10;48.88;99151.03;5100474;28;19931;-62
2022/03/23 04:00:54;;;;;;;;;;;;;;;10.11;48.87;99146.53;5102573;28;19964;-62
2022/03/23 04:03:22;;;;;;;;;;;;;;;10.14;48.81;99148.75;5101799;28;20003;-62
2022/03/23 04:05:48;;;;;;;;;;;;;;;10.16;48.68;99146.66;5098844;28;19936;-62
2022/03/23 04:08:14;;;;;;;;;;;;;;;10.11;48.48;99143.84;5099012;28;19921;-62
2022/03/23 04:10:41;;;;;;;;;;;;;;;10.00;48.76;99155.28;5102531;28;20028;-60
2022/03/23 04:13:08;;;;;;;;;;;;;;;9.96;48.69;99146.16;5106610;28;19924;-60
2022/03/23 04:15:34;;;;;;;;;;;;;;;9.99;48.81;99145.69;5099870;28;19924;-60
2022/03/23 04:18:00;;;;;;;;;;;;;;;9.98;48.98;99150.19;5098980;28;19963;-60
2022/03/23 04:20:29;;;;;;;;;;;;;;;9.86;49.07;99151.22;5100346;28;19928;-61
2022/03/23 04:22:55;;;;;;;;;;;;;;;9.81;49.34;99148.44;5102216;28;19995;-61
2022/03/23 04:25:22;;;;;;;;;;;;;;;9.85;49.23;99152.25;5101345;28;19996;-61
2022/03/23 04:27:49;;;;;;;;;;;;;;;9.92;48.90;99150.31;5098753;28;19983;-61
2022/03/23 04:30:17;;;;;;;;;;;;;;;9.91;49.09;99154.00;5098753;28;20046;-61
2022/03/23 04:32:44;;;;;;;;;;;;;;;9.96;49.18;99151.47;5098641;28;19925;-61
2022/03/23 04:35:10;;;;;;;;;;;;;;;9.91;49.06;99148.66;5098837;28;19947;-60
2022/03/23 04:37:38;;;;;;;;;;;;;;;9.86;49.18;99145.88;5101523;28;20018;-61
2022/03/23 04:40:05;;;;;;;;;;;;;;;9.80;49.26;99160.13;5101410;28;19955;-61
2022/03/23 04:42:32;;;;;;;;;;;;;;;9.84;49.14;99147.97;5102073;28;19959;-61
2022/03/23 04:44:59;;;;;;;;;;;;;;;9.82;49.33;99150.03;5102034;28;20586;-61
2022/03/23 04:47:25;;;;;;;;;;;;;;;9.76;49.71;99157.91;5100653;28;19962;-61
2022/03/23 04:49:51;;;;;;;;;;;;;;;9.81;49.48;99156.44;5098497;28;19920;-61
2022/03/23 04:52:18;;;;;;;;;;;;;;;9.83;49.26;99157.00;5098910;28;20363;-61
2022/03/23 04:54:45;;;;;;;;;;;;;;;9.71;49.74;99160.47;5101936;28;19924;-61
2022/03/23 04:57:12;;;;;;;;;;;;;;;9.52;50.23;99160.72;5102034;28;20348;-61
2022/03/23 04:59:38;;;;;;;;;;;;;;;9.60;50.34;99166.53;5098682;28;19924;-61
2022/03/23 05:02:05;;;;;;;;;;;;;;;9.47;50.27;99165.94;5098092;28;19925;-61
2022/03/23 05:04:31;;;;;;;;;;;;;;;9.64;50.54;99181.06;5100259;28;19991;-61
2022/03/23 05:06:58;;;;;;;;;;;;;;;9.68;50.25;99176.91;5101618;28;19928;-61
2022/03/23 05:09:24;;;;;;;;;;;;;;;9.69;50.29;99173.19;5100568;28;19924;-61
2022/03/23 05:11:52;;;;;;;;;;;;;;;9.71;50.22;99168.47;5098899;28;19940;-61
2022/03/23 05:14:18;;;;;;;;;;;;;;;9.68;50.30;99171.59;5101448;28;19925;-62
2022/03/23 05:16:45;;;;;;;;;;;;;;;9.69;50.60;99177.72;5101707;28;19927;-62
2022/03/23 05:19:11;;;;;;;;;;;;;;;9.55;50.42;99177.09;5101610;28;19962;-62
2022/03/23 05:21:38;;;;;;;;;;;;;;;9.41;51.45;99164.16;5098726;28;20019;-61
2022/03/23 05:24:04;;;;;;;;;;;;;;;8.90;52.48;99184.00;5098128;28;19956;-61
2022/03/23 05:26:31;;;;;;;;;;;;;;;8.28;55.00;99174.34;5100244;28;19936;-61
2022/03/23 05:28:58;;;;;;;;;;;;;;;7.97;56.77;99179.66;5101806;28;19932;-61
2022/03/23 05:31:25;;;;;;;;;;;;;;;8.54;56.67;99184.75;5100611;28;20018;-62
2022/03/23 05:33:51;;;;;;;;;;;;;;;8.90;55.33;99186.69;5098317;28;19925;-62
2022/03/23 05:36:18;;;;;;;;;;;;;;;8.97;54.77;99175.97;5098356;28;19924;-62
2022/03/23 05:38:44;;;;;;;;;;;;;;;8.91;54.51;99192.81;5101546;28;19920;-62
2022/03/23 05:41:11;;;;;;;;;;;;;;;9.27;53.40;99190.16;5101623;28;19924;-62
2022/03/23 05:43:37;;;;;;;;;;;;;;;9.37;52.79;99184.31;5102769;28;19925;-62
2022/03/23 05:46:05;;;;;;;;;;;;;;;9.44;52.77;99185.84;5097142;28;19924;-62
2022/03/23 05:48:31;;;;;;;;;;;;;;;9.51;52.51;99185.75;5100115;28;19924;-62
2022/03/23 05:50:58;;;;;;;;;;;;;;;9.51;52.13;99181.25;5101402;28;19930;-62
2022/03/23 05:53:24;;;;;;;;;;;;;;;9.54;52.40;99178.13;5103138;28;19991;-62
2022/03/23 05:55:50;;;;;;;;;;;;;;;9.59;52.26;99180.91;5101531;28;19959;-62
2022/03/23 05:58:17;;;;;;;;;;;;;;;9.57;52.02;99179.50;5101804;28;19959;-61
2022/03/23 06:00:43;;;;;;;;;;;;;;;9.56;52.26;99178.69;5105016;28;19924;-61
2022/03/23 06:03:11;;;;;;;;;;;;;;;9.56;52.08;99177.91;5104947;28;19920;-62
2022/03/23 06:05:37;;;;;;;;;;;;;;;9.57;51.87;99185.66;5101849;28;19967;-62
2022/03/23 06:08:04;;;;;;;;;;;;;;;9.55;51.77;99186.94;5101199;28;19925;-62
2022/03/23 06:10:31;;;;;;;;;;;;;;;9.64;51.77;99180.25;5102142;28;19928;-62
2022/03/23 06:12:57;;;;;;;;;;;;;;;9.60;51.96;99190.56;5108869;28;19952;-60
2022/03/23 06:15:24;;;;;;;;;;;;;;;9.72;51.58;99191.41;5103336;28;19959;-61
2022/03/23 06:17:50;;;;;;;;;;;;;;;9.56;52.24;99183.25;5101026;28;19929;-62
2022/03/23 06:20:18;;;;;;;;;;;;;;;9.40;52.81;99190.00;5101007;28;19924;-61
2022/03/23 06:22:44;;;;;;;;;;;;;;;9.35;52.83;99194.34;5104415;28;19920;-61
2022/03/23 06:25:11;;;;;;;;;;;;;;;9.45;53.07;99198.13;5104221;28;19987;-62
2022/03/23 06:27:38;;;;;;;;;;;;;;;8.62;55.13;99197.81;5101379;28;19924;-62
2022/03/23 06:30:05;;;;;;;;;;;;;;;9.04;55.81;99208.66;5100862;28;19924;-62
2022/03/23 06:32:33;;;;;;;;;;;;;;;8.85;56.93;99212.34;5103018;28;19934;-62
2022/03/23 06:35:00;;;;;;;;;;;;;;;8.83;56.92;99217.06;5104176;28;19959;-62
2022/03/23 06:37:28;;;;;;;;;;;;;;;9.83;54.61;99199.69;5095946;28;19924;-62
2022/03/23 06:39:54;;;;;;;;;;;;;;;10.28;53.09;99208.91;5103874;28;19924;-61
2022/03/23 06:42:20;;;;;;;;;;;;;;;10.54;52.24;99207.66;5104087;28;19956;-62
2022/03/23 06:44:47;;;;;;;;;;;;;;;10.79;51.77;99210.94;5108325;28;19924;-61
2022/03/23 06:47:14;;;;;;;;;;;;;;;11.08;50.79;99214.53;5100825;28;19930;-61
2022/03/23 06:49:40;;;;;;;;;;;;;;;11.24;50.43;99219.16;5104100;28;19955;-61
2022/03/23 06:52:07;;;;;;;;;;;;;;;11.37;50.26;99213.53;5103728;28;19924;-61
2022/03/23 06:54:34;;;;;;;;;;;;;;;11.19;49.54;99219.03;5101590;28;19948;-61
2022/03/23 06:57:01;;;;;;;;;;;;;;;10.62;51.33;99224.16;5100398;28;20018;-62
2022/03/23 06:59:27;;;;;;;;;;;;;;;10.73;51.77;99225.22;5101792;28;19952;-62
2022/03/23 07:01:54;;;;;;;;;;;;;;;10.34;51.62;99226.66;5103515;28;19923;-61
2022/03/23 07:04:24;;;;;;;;;;;;;;;10.63;51.34;99235.66;5102913;28;19925;-62
2022/03/23 07:06:51;;;;;;;;;;;;;;;10.66;51.16;99228.00;5100010;28;19924;-62
2022/03/23 07:09:31;;;;;;;;;;;;;;;10.41;51.58;99223.91;5100294;28;19939;-62
2022/03/23 07:11:59;;;;;;;;;;;;;;;9.83;51.47;99226.38;5103485;28;19946;-62
2022/03/23 07:14:26;;;;;;;;;;;;;;;9.16;53.35;99228.19;5103290;28;19956;-62
2022/03/23 07:16:52;;;;;;;;;;;;;;;9.23;55.11;99237.78;5103562;28;19967;-62
2022/03/23 07:19:18;;;;;;;;;;;;;;;9.93;54.57;99226.66;5102944;28;19924;-62
2022/03/23 07:21:45;;;;;;;;;;;;;;;10.19;53.30;99242.31;5099638;28;19952;-62
2022/03/23 07:24:11;;;;;;;;;;;;;;;10.00;52.79;99233.50;5098775;28;20015;-62
2022/03/23 07:26:37;;;;;;;;;;;;;;;10.28;52.75;99240.94;5102420;28;19924;-61
2022/03/23 07:29:05;;;;;;;;;;;;;;;10.19;51.92;99237.78;5102920;28;19963;-61
2022/03/23 07:31:31;;;;;;;;;;;;;;;10.29;52.25;99242.56;5100723;28;19947;-62
2022/03/23 07:33:58;;;;;;;;;;;;;;;10.35;52.19;99235.50;5099331;28;19983;-62
2022/03/23 07:36:25;;;;;;;;;;;;;;;10.52;51.76;99247.97;5100240;28;19966;-62
2022/03/23 07:38:51;;;;;;;;;;;;;;;10.57;51.20;99240.09;5102534;28;19920;-61
2022/03/23 07:41:17;;;;;;;;;;;;;;;10.47;51.11;99237.16;5102263;28;19987;-61
2022/03/23 07:43:44;;;;;;;;;;;;;;;10.45;51.32;99241.09;5102980;28;19955;-61
2022/03/23 07:46:11;;;;;;;;;;;;;;;10.34;51.31;99234.69;5098727;28;19921;-61
2022/03/23 07:48:38;;;;;;;;;;;;;;;9.95;52.34;99237.91;5101801;28;19935;-61
2022/03/23 07:51:04;;;;;;;;;;;;;;;9.77;52.59;99250.25;5102170;28;20016;-62
2022/03/23 07:53:30;;;;;;;;;;;;;;;10.02;52.71;99239.47;5100264;28;19995;-61
2022/03/23 07:55:57;;;;;;;;;;;;;;;10.25;52.08;99242.22;5098479;28;19920;-61
2022/03/23 07:58:25;;;;;;;;;;;;;;;10.21;51.95;99241.03;5099610;28;19991;-62
2022/03/23 08:00:52;;;;;;;;;;;;;;;10.32;51.84;99241.31;5102235;28;19928;-61
2022/03/23 08:03:20;;;;;;;;;;;;;;;9.96;52.90;99236.88;5102090;28;20063;-62
2022/03/23 08:05:47;;;;;;;;;;;;;;;9.93;52.87;99238.16;5098816;28;19936;-62
2022/03/23 08:08:13;;;;;;;;;;;;;;;9.94;53.57;99239.75;5098783;28;20199;-62
2022/03/23 08:10:41;;;;;;;;;;;;;;;9.97;53.69;99241.16;5101977;28;19927;-62
2022/03/23 08:13:09;;;;;;;;;;;;;;;10.16;52.98;99250.78;5106629;28;19924;-62
2022/03/23 08:15:36;;;;;;;;;;;;;;;10.23;52.32;99244.31;5098614;28;19927;-61
2022/03/23 08:18:02;;;;;;;;;;;;;;;10.29;52.63;99253.25;5098425;28;19935;-61
2022/03/23 08:20:36;;;;;;;;;;;;;;;10.39;52.32;99247.38;5100099;28;19924;-61
2022/03/23 08:23:03;;;;;;;;;;;;;;;10.52;51.86;99247.16;5102057;28;20006;-60
2022/03/23 08:25:30;;;;;;;;;;;;;;;10.40;52.20;99247.13;5099628;28;19963;-61
2022/03/23 08:27:57;;;;;;;;;;;;;;;10.40;51.77;99241.78;5098081;28;19928;-61
2022/03/23 08:30:24;;;;;;;;;;;;;;;10.30;52.42;99246.88;5099123;28;19974;-61
2022/03/23 08:32:50;;;;;;;;;;;;;;;10.33;52.21;99241.09;5100620;28;20011;-61
2022/03/23 08:35:16;;;;;;;;;;;;;;;10.38;52.13;99249.22;5101908;28;19924;-62
2022/03/23 08:37:44;;;;;;;;;;;;;;;10.42;51.94;99234.38;5098243;28;19978;-62
2022/03/23 08:40:11;;;;;;;;;;;;;;;10.57;51.51;99237.41;5098207;28;19924;-62
2022/03/23 08:42:37;;;;;;;;;;;;;;;10.62;51.24;99242.88;5105517;28;19928;-61
2022/03/23 08:45:04;;;;;;;;;;;;;;;10.59;51.42;99243.31;5101680;28;19995;-62
2022/03/23 08:47:30;;;;;;;;;;;;;;;10.52;51.18;99239.94;5099839;28;19931;-61
2022/03/23 08:49:57;;;;;;;;;;;;;;;10.44;50.78;99244.81;5098217;28;19984;-61
2022/03/23 08:52:23;;;;;;;;;;;;;;;10.33;50.43;99240.28;5099223;28;19928;-62
2022/03/23 08:54:51;;;;;;;;;;;;;;;10.35;50.00;99236.31;5101704;28;19974;-62
2022/03/23 08:57:18;;;;;;;;;;;;;;;10.43;50.20;99244.00;5101832;28;20446;-62
2022/03/23 08:59:44;;;;;;;;;;;;;;;10.52;48.87;99239.16;5098536;28;19963;-61
2022/03/23 09:02:10;;;;;;;;;;;;;;;10.46;47.78;99237.41;5097414;28;19920;-61
2022/03/23 09:04:37;;;;;;;;;;;;;;;10.55;48.06;99242.16;5101435;28;19966;-61
2022/03/23 09:07:03;;;;;;;;;;;;;;;10.55;48.60;99234.13;5101690;28;19928;-61
2022/03/23 09:09:30;;;;;;;;;;;;;;;10.60;47.85;99234.28;5099859;28;19924;-61
2022/03/23 09:11:57;;;;;;;;;;;;;;;10.72;48.24;99236.94;5099724;28;19967;-61
2022/03/23 09:14:24;;;;;;;;;;;;;;;10.79;46.04;99235.81;5101567;28;20000;-62
2022/03/23 09:16:50;;;;;;;;;;;;;;;10.92;45.81;99228.59;5101973;28;19951;-62
2022/03/23 09:19:20;;;;;;;;;;;;;;;10.93;45.69;99236.38;5101791;28;19984;-62
2022/03/23 09:21:46;;;;;;;;;;;;;;;11.02;44.95;99231.47;5089887;28;20466;-62
2022/03/23 09:24:13;;;;;;;;;;;;;;;11.01;45.22;99225.34;5089961;28;20312;-62
2022/03/23 09:26:39;;;;;;;;;;;;;;;11.12;44.13;99223.69;5091365;28;19932;-62
2022/03/23 09:29:08;;;;;;;;;;;;;;;11.16;42.45;99228.34;5093451;28;19927;-62
2022/03/23 09:31:34;;;;;;;;;;;;;;;11.25;42.51;99221.59;5093333;28;19970;-62
2022/03/23 09:34:02;;;;;;;;;;;;;;;11.31;41.86;99220.66;5093251;28;19967;-62
2022/03/23 09:39:12;;;;;;;;;;;;;;;11.53;40.55;99228.03;5093439;28;19925;-62
2022/03/23 09:41:39;;;;;;;;;;;;;;;11.49;41.09;99217.00;5093263;28;19924;-62
2022/03/23 09:44:06;;;;;;;;;;;;;;;11.66;40.89;99223.25;5105854;28;19924;-62
2022/03/23 09:46:33;;;;;;;;;;;;;;;11.81;40.05;99226.25;5103752;28;19925;-62
2022/03/23 09:49:00;;;;;;;;;;;;;;;11.85;39.22;99216.66;5105054;28;19927;-62
2022/03/23 09:51:26;;;;;;;;;;;;;;;11.90;39.18;99211.44;5103834;28;19931;-62
2022/03/23 09:53:53;;;;;;;;;;;;;;;11.96;38.52;99215.00;5101683;28;19971;-61
2022/03/23 09:56:20;;;;;;;;;;;;;;;12.01;38.43;99208.94;5101932;28;20037;-61
2022/03/23 09:58:46;;;;;;;;;;;;;;;11.85;40.04;99202.50;5104966;28;20713;-62
2022/03/23 10:01:43;;;;;;;;;;;;;;;12.11;40.39;99209.09;5104852;28;19974;-62
2022/03/23 10:04:36;;;;;;;;;;;;;;;12.30;39.76;99207.84;5092255;28;19924;-62
2022/03/23 10:07:07;;;;;;;;;;;;;;;12.36;40.02;99202.31;5104201;28;19991;-61
2022/03/23 10:09:53;;;;;;;;;;;;;;;12.55;39.10;99197.53;5102182;28;19928;-61
2022/03/23 10:12:47;;;;;;;;;;;;;;;12.49;38.81;99201.19;5105857;28;19979;-61
2022/03/23 10:15:34;;;;;;;;;;;;;;;12.57;38.31;99192.72;5104348;28;20015;-61
2022/03/23 10:18:10;;;;;;;;;;;;;;;12.66;38.36;99195.81;5100835;28;19968;-62
2022/03/23 10:20:36;;;;;;;;;;;;;;;12.65;39.36;99200.38;5103569;28;19946;-61
2022/03/23 10:23:05;;;;;;;;;;;;;;;12.91;40.72;99188.13;5104047;28;19928;-61
2022/03/23 10:25:32;;;;;;;;;;;;;;;12.98;40.10;99189.59;5100790;28;19924;-62
2022/03/23 10:27:59;;;;;;;;;;;;;;;13.09;38.56;99189.78;5100991;28;19959;-61
2022/03/23 10:30:37;;;;;;;;;;;;;;;13.09;38.42;99179.84;5101899;28;19935;-61
2022/03/23 10:33:16;;;;;;;;;;;;;;;13.08;40.51;99182.75;5104231;28;19963;-61
2022/03/23 10:35:42;;;;;;;;;;;;;;;13.26;39.83;99182.47;5100568;28;19954;-62
2022/03/23 10:38:12;;;;;;;;;;;;;;;13.33;38.99;99180.44;5099850;28;19920;-61
2022/03/23 10:40:38;;;;;;;;;;;;;;;13.23;39.40;99177.63;5103701;28;19924;-62
2022/03/23 10:43:05;;;;;;;;;;;;;;;13.40;38.41;99170.31;5108560;28;19970;-62
2022/03/23 10:45:32;;;;;;;;;;;;;;;13.70;37.35;99167.97;5101872;28;19931;-62
2022/03/23 10:48:09;;;;;;;;;;;;;;;13.66;38.54;99166.84;5100508;28;19947;-62
2022/03/23 10:50:36;;;;;;;;;;;;;;;13.78;40.13;99162.16;5102769;28;19979;-64
2022/03/23 10:53:03;;;;;;;;;;;;;;;13.86;38.12;99167.09;5103535;28;19928;-62
2022/03/23 10:55:32;;;;;;;;;;;;;;;13.88;37.95;99148.81;5101934;28;20070;-62
2022/03/23 10:58:18;;;;;;;;;;;;;;;14.00;39.84;99144.09;5100041;28;20486;-62
2022/03/23 11:00:44;;;;;;;;;;;;;;;13.98;36.10;99148.94;5099897;28;20167;-62
2022/03/23 11:03:12;;;;;;;;;;;;;;;13.96;36.96;99153.72;5100251;28;19952;-62
2022/03/23 11:05:40;;;;;;;;;;;;;;;14.12;38.97;99140.44;5103038;28;19924;-61
2022/03/23 11:08:08;;;;;;;;;;;;;;;14.21;39.01;99145.09;5103854;28;19935;-62
2022/03/23 11:16:06;;;;;;;;;;;;;;;14.46;35.36;99128.38;5098816;28;19995;-62
2022/03/23 11:18:34;;;;;;;;;;;;;;;14.44;35.45;99122.47;5101863;28;19932;-62
2022/03/23 11:21:00;;;;;;;;;;;;;;;14.48;34.42;99126.25;5102932;28;19982;-62
2022/03/23 11:23:28;;;;;;;;;;;;;;;14.59;34.95;99117.19;5100544;28;19920;-62
2022/03/23 11:25:55;;;;;;;;;;;;;;;14.60;37.36;99118.81;5099465;28;19928;-62
2022/03/23 11:28:23;;;;;;;;;;;;;;;14.69;34.17;99114.56;5100313;28;19963;-62
2022/03/23 11:30:50;;;;;;;;;;;;;;;14.72;35.25;99115.91;5103215;28;19987;-62
2022/03/23 11:33:17;;;;;;;;;;;;;;;14.91;33.57;99112.53;5103429;28;19951;-62
2022/03/23 11:35:49;;;;;;;;;;;;;;;14.84;35.05;99106.56;5099525;28;19985;-62
2022/03/23 11:38:16;;;;;;;;;;;;;;;15.14;33.38;99111.28;5099635;28;19950;-62
2022/03/23 11:40:44;;;;;;;;;;;;;;;15.20;33.31;99106.72;5091243;28;19924;-62
2022/03/23 11:43:11;;;;;;;;;;;;;;;15.15;33.90;99110.22;5102969;28;19920;-62
2022/03/23 11:45:38;;;;;;;;;;;;;;;15.07;35.66;99105.34;5099956;28;19928;-61
2022/03/23 11:48:09;;;;;;;;;;;;;;;15.00;36.07;99105.59;5099241;28;19999;-61
2022/03/23 11:50:42;;;;;;;;;;;;;;;15.13;35.56;99088.94;5101937;28;19924;-62
2022/03/23 11:53:18;;;;;;;;;;;;;;;15.13;35.88;99094.31;5102801;28;19979;-62
2022/03/23 11:55:47;;;;;;;;;;;;;;;15.52;33.95;99089.38;5098160;28;19921;-61
2022/03/23 11:58:18;;;;;;;;;;;;;;;15.53;34.23;99091.00;5099250;28;19925;-62
2022/03/23 12:00:46;;;;;;;;;;;;;;;15.70;33.96;99088.03;5099028;28;19931;-62
2022/03/23 12:03:12;;;;;;;;;;;;;;;15.59;34.72;99081.03;5099201;28;19942;-62
2022/03/23 12:05:49;;;;;;;;;;;;;;;15.85;33.65;99068.38;5102096;28;19931;-62
2022/03/23 12:08:39;;;;;;;;;;;;;;;15.78;33.50;99076.75;5102552;28;19931;-62
2022/03/23 12:11:28;;;;;;;;;;;;;;;15.70;34.18;99076.44;5090534;28;19939;-62
2022/03/23 12:13:59;;;;;;;;;;;;;;;15.55;34.34;99069.16;5105139;28;19928;-62
2022/03/23 12:16:41;;;;;;;;;;;;;;;15.59;34.54;99067.56;5100216;28;19975;-62
2022/03/23 12:19:07;;;;;;;;;;;;;;;15.39;35.91;99064.78;5102594;28;19924;-61
2022/03/23 12:21:42;;;;;;;;;;;;;;;15.79;34.17;99056.81;5099225;28;20781;-62
2022/03/23 12:24:10;;;;;;;;;;;;;;;15.95;34.03;99053.03;5098778;28;19952;-63
2022/03/23 12:26:38;;;;;;;;;;;;;;;15.91;34.42;99051.94;5101455;28;19956;-62
2022/03/23 12:29:09;;;;;;;;;;;;;;;15.53;36.22;99049.78;5102131;28;19935;-61
2022/03/23 12:31:36;;;;;;;;;;;;;;;15.12;37.85;99046.97;5099576;28;20004;-62
2022/03/23 12:34:09;;;;;;;;;;;;;;;15.45;38.00;99058.34;5098791;28;19929;-61
2022/03/23 12:39:27;;;;;;;;;;;;;;;15.54;38.39;99052.19;5101537;28;19943;-61
2022/03/23 12:41:54;;;;;;;;;;;;;;;15.13;39.13;99051.25;5099567;28;19929;-62
2022/03/23 12:44:29;;;;;;;;;;;;;;;15.74;35.34;99046.03;5101660;28;20006;-63
2022/03/23 12:46:56;;;;;;;;;;;;;;;15.89;36.74;99050.59;5101425;28;19928;-62
2022/03/23 12:57:50;;;;;;;;;;;;;;;16.51;34.39;99036.78;5100834;28;19928;-61
2022/03/23 13:00:29;;;;;;;;;;;;;;;16.45;34.88;99035.19;5101873;28;19924;-61
2022/03/23 13:03:13;;;;;;;;;;;;;;;16.42;34.28;99025.75;5093955;28;19971;-61
2022/03/23 13:06:00;;;;;;;;;;;;;;;16.60;33.31;99027.91;5093816;28;19952;-62
2022/03/23 13:08:38;;;;;;;;;;;;;;;16.81;32.99;99033.19;5101030;28;19968;-62
2022/03/23 13:11:06;;;;;;;;;;;;;;;16.90;32.79;99026.97;5093803;28;19947;-62
2022/03/23 13:13:33;;;;;;;;;;;;;;;16.98;32.63;99023.69;5106402;28;19931;-62
2022/03/23 13:16:01;;;;;;;;;;;;;;;17.10;32.42;99015.28;5101846;28;19925;-62
2022/03/23 13:18:29;;;;;;;;;;;;;;;17.18;32.56;99011.97;5103449;28;19940;-62
2022/03/23 13:20:56;;;;;;;;;;;;;;;17.15;32.08;99015.22;5105383;28;19964;-62